Etusivu
METAR-TAF:

METAR-TAF

Lentoasemat :

Liègen lentoasema

Liège, Belgia

Leveyspiiri: 50-39N, Pituuspiiri: 005-27E, korkeus merenpinnasta: 186 m

Tämänhetkinen sää

Tämä raportti tehtiin 14 minuuttia sitten, kello 15.50 UTC
Tuuli 5 kn pohjoisesta, vaihdellen pohjoisen/luoteen ja idän/koillisen välillä
Lämpötila 15°C
Kosteus 51%
Ilmanpaine 1032 hPa
Näkyvyys 10 km tai enemmän
ei pilviä alle 1500 m:ssä eikä cumulonimbus-pilviä

METAR: EBLG 211550Z 01005KT 330V060 CAVOK 15/05 Q1032 NOSIG

Aika: 17:04 (16:04 UTC)

Sääennuste

Tämä raportti tehtiin 4 tuntia ja 55 minuuttia sitten, kello 11.09 UTC
Ennuste voimassa 21. päivästä klo 12 UTC - 22. päivään klo 18 UTC
Tuuli 3 kn pohjoisesta/koillisesta
Näkyvyys 10 km tai enemmän
ei pilviä alle 1500 m:ssä eikä cumulonimbus-pilviä
Todennäköisyys 30% :
Ajoittain
22. päivästä klo 03 UTC - 22. päivään klo 06 UTC
Näkyvyys: 3500 m
utua

TAF: EBLG 211109Z 2112/2218 02003KT CAVOK PROB30 TEMPO 2203/2206 3500 BR

Säähavainnot ja -ennusteet yli 4000 lentoasemalta (METAR- ja TAF-raportit).

Käytössä olevat sääasemat on merkitty karttaan keltaisilla ja punaisilla pisteillä.

Aseta hiiri pisteen päälle nähdäksesi sääaseman nimen.

Klikkaa sitten nähdäksesi säähavainnot ja -ennusteet.

Kartan vaihtaminen: klikkaa mustalla rastilla varustettuja vihreitä pisteitä, niin voit zoomata sisään; viivalla varustettua vihreää pistettä, niin voit zoomata ulos tai vihreitä nuolia, niin pääset viereisille kartoille.


METAR-TAF: